createdAt,value
2022-12-28T00:01:52.814Z,94508.06
2022-12-28T00:04:20.937Z,94513.56
2022-12-28T00:06:50.853Z,94507.31
2022-12-28T00:09:19.141Z,94509.22
2022-12-28T00:11:47.061Z,94516.41
2022-12-28T00:14:15.297Z,94505.78
2022-12-28T00:16:44.085Z,94523.00
2022-12-28T00:19:15.425Z,94513.84
2022-12-28T00:21:45.037Z,94514.06
2022-12-28T00:24:22.270Z,94521.06
2022-12-28T00:26:50.840Z,94524.34
2022-12-28T00:29:20.358Z,94519.38
2022-12-28T00:31:48.663Z,94519.53
2022-12-28T00:34:16.818Z,94517.59
2022-12-28T00:37:08.300Z,94512.53
2022-12-28T00:39:32.888Z,94508.53
2022-12-28T00:42:00.776Z,94527.63
2022-12-28T00:44:28.919Z,94528.69
2022-12-28T00:46:56.760Z,94522.03
2022-12-28T00:49:24.810Z,94533.44
2022-12-28T00:51:54.142Z,94525.06
2022-12-28T00:54:22.084Z,94525.53
2022-12-28T00:56:50.252Z,94529.09
2022-12-28T00:59:18.116Z,94524.44
2022-12-28T01:01:46.173Z,94536.19
2022-12-28T01:04:15.261Z,94537.44
2022-12-28T01:06:43.243Z,94539.59
2022-12-28T01:09:11.030Z,94535.22
2022-12-28T01:11:39.004Z,94534.59
2022-12-28T01:14:06.876Z,94533.53
2022-12-28T01:16:36.562Z,94532.63
2022-12-28T01:19:06.729Z,94522.09
2022-12-28T01:21:36.482Z,94526.28
2022-12-28T01:24:08.239Z,94513.66
2022-12-28T01:26:36.343Z,94522.06
2022-12-28T01:29:04.433Z,94512.34
2022-12-28T01:31:35.268Z,94510.13
2022-12-28T01:34:03.914Z,94513.47
2022-12-28T01:36:35.127Z,94504.00
2022-12-28T01:39:05.967Z,94508.59
2022-12-28T01:41:38.427Z,94512.97
2022-12-28T01:44:07.488Z,94517.72
2022-12-28T01:46:42.772Z,94514.53
2022-12-28T01:49:27.568Z,94514.78
2022-12-28T01:52:26.761Z,94516.22
2022-12-28T01:55:03.197Z,94524.63
2022-12-28T01:57:46.148Z,94505.72
2022-12-28T02:00:32.358Z,94511.00
2022-12-28T02:03:07.795Z,94512.44
2022-12-28T02:05:39.807Z,94500.22
2022-12-28T02:08:46.841Z,94507.38
2022-12-28T02:11:18.781Z,94509.22
2022-12-28T02:13:49.378Z,94503.50
2022-12-28T02:16:19.540Z,94502.09
2022-12-28T02:18:48.732Z,94501.34
2022-12-28T02:21:28.490Z,94504.00
2022-12-28T02:24:34.865Z,94507.41
2022-12-28T02:27:21.185Z,94497.88
2022-12-28T02:30:09.244Z,94490.56
2022-12-28T02:32:47.568Z,94482.19
2022-12-28T02:35:34.362Z,94483.44
2022-12-28T02:38:31.356Z,94482.66
2022-12-28T02:41:09.042Z,94477.97
2022-12-28T02:43:37.189Z,94471.25
2022-12-28T02:46:36.776Z,94476.31
2022-12-28T02:49:44.402Z,94470.59
2022-12-28T02:52:39.578Z,94470.16
2022-12-28T02:55:44.858Z,94477.97
2022-12-28T03:00:25.675Z,94468.38
2022-12-28T03:03:07.307Z,94474.91
2022-12-28T03:06:00.998Z,94473.66
2022-12-28T03:08:51.454Z,94468.75
2022-12-28T03:11:44.727Z,94481.69
2022-12-28T03:14:33.060Z,94478.28
2022-12-28T03:17:21.767Z,94480.47
2022-12-28T03:20:23.127Z,94482.53
2022-12-28T03:23:11.691Z,94477.19
2022-12-28T03:26:03.740Z,94475.53
2022-12-28T03:29:01.044Z,94478.34
2022-12-28T03:31:32.569Z,94483.97
2022-12-28T03:34:07.367Z,94484.78
2022-12-28T03:36:48.834Z,94493.53
2022-12-28T03:39:35.954Z,94491.69
2022-12-28T03:42:30.718Z,94489.00
2022-12-28T03:45:06.817Z,94482.50
2022-12-28T03:47:37.947Z,94491.88
2022-12-28T03:50:06.581Z,94494.28
2022-12-28T03:52:34.577Z,94493.84
2022-12-28T03:55:06.343Z,94488.81
2022-12-28T03:57:34.557Z,94485.56
2022-12-28T04:00:05.202Z,94487.97
2022-12-28T04:02:43.952Z,94485.97
2022-12-28T04:05:12.644Z,94487.97
2022-12-28T04:07:42.079Z,94488.19
2022-12-28T04:10:11.624Z,94480.59
2022-12-28T04:12:39.672Z,94487.00
2022-12-28T04:15:20.701Z,94476.78
2022-12-28T04:17:49.214Z,94478.88
2022-12-28T04:20:17.866Z,94473.78
2022-12-28T04:22:46.559Z,94485.13
2022-12-28T04:25:15.211Z,94483.78
2022-12-28T04:27:43.796Z,94474.25
2022-12-28T04:30:30.091Z,94476.72
2022-12-28T04:32:58.745Z,94472.22
2022-12-28T04:35:26.657Z,94465.28
2022-12-28T04:37:55.496Z,94471.72
2022-12-28T04:40:23.389Z,94469.94
2022-12-28T04:42:51.363Z,94476.66
2022-12-28T04:45:22.142Z,94476.81
2022-12-28T04:47:50.260Z,94483.00
2022-12-28T04:50:18.139Z,94489.13
2022-12-28T04:52:46.305Z,94483.69
2022-12-28T04:55:32.016Z,94490.16
2022-12-28T04:58:01.702Z,94505.44
2022-12-28T05:00:29.681Z,94507.72
2022-12-28T05:03:00.999Z,94510.31
2022-12-28T05:05:30.155Z,94517.84
2022-12-28T05:08:01.786Z,94518.94
2022-12-28T05:10:30.391Z,94522.84
2022-12-28T05:12:58.292Z,94526.78
2022-12-28T05:15:26.262Z,94525.22
2022-12-28T05:17:55.571Z,94515.00
2022-12-28T05:20:23.617Z,94520.31
2022-12-28T05:22:51.737Z,94521.16
2022-12-28T05:25:19.799Z,94506.13
2022-12-28T05:27:47.657Z,94516.31
2022-12-28T05:30:15.668Z,94513.13
2022-12-28T05:32:43.519Z,94517.19
2022-12-28T05:35:11.447Z,94516.63
2022-12-28T05:37:39.347Z,94514.81
2022-12-28T05:40:08.171Z,94512.56
2022-12-28T05:42:37.289Z,94502.22
2022-12-28T05:45:05.676Z,94507.53
2022-12-28T05:47:33.656Z,94509.28
2022-12-28T05:50:01.511Z,94521.72
2022-12-28T05:52:30.441Z,94521.53
2022-12-28T05:54:58.399Z,94524.00
2022-12-28T05:57:26.338Z,94524.25
2022-12-28T05:59:54.218Z,94531.16
2022-12-28T06:02:25.916Z,94536.88
2022-12-28T06:04:54.587Z,94537.69
2022-12-28T06:07:22.831Z,94535.44
2022-12-28T06:09:50.816Z,94538.47
2022-12-28T06:12:19.369Z,94542.16
2022-12-28T06:14:47.230Z,94545.44
2022-12-28T06:17:15.191Z,94548.47
2022-12-28T06:19:43.197Z,94556.22
2022-12-28T06:22:11.058Z,94559.06
2022-12-28T06:24:39.180Z,94557.88
2022-12-28T06:27:07.146Z,94547.09
2022-12-28T06:29:35.307Z,94553.44
2022-12-28T06:32:03.288Z,94555.09
2022-12-28T06:34:31.307Z,94549.59
2022-12-28T06:37:00.453Z,94558.72
2022-12-28T06:39:29.401Z,94559.81
2022-12-28T06:41:57.820Z,94568.66
2022-12-28T06:44:25.831Z,94571.13
2022-12-28T06:46:53.782Z,94570.19
2022-12-28T06:49:21.904Z,94567.41
2022-12-28T06:51:49.832Z,94565.31
2022-12-28T06:54:17.850Z,94566.34
2022-12-28T06:56:46.002Z,94572.88
2022-12-28T06:59:14.009Z,94574.75
2022-12-28T07:01:44.984Z,94580.66
2022-12-28T07:04:13.493Z,94568.13
2022-12-28T07:06:43.948Z,94579.75
2022-12-28T07:09:16.419Z,94581.81
2022-12-28T07:11:45.247Z,94583.66
2022-12-28T07:14:13.178Z,94591.88
2022-12-28T07:19:08.315Z,94578.34
2022-12-28T07:21:39.111Z,94575.31
2022-12-28T07:24:08.246Z,94571.00
2022-12-28T07:26:37.855Z,94569.69
2022-12-28T07:29:07.531Z,94572.47
2022-12-28T07:31:44.119Z,94572.31
2022-12-28T07:34:15.158Z,94575.78
2022-12-28T07:36:44.076Z,94568.84
2022-12-28T07:39:12.219Z,94558.69
2022-12-28T07:41:40.337Z,94565.75
2022-12-28T07:44:08.227Z,94571.88
2022-12-28T07:46:38.320Z,94565.59
2022-12-28T07:49:07.239Z,94564.59
2022-12-28T07:51:37.105Z,94570.13
2022-12-28T07:54:06.191Z,94581.56
2022-12-28T07:59:04.142Z,94586.13
2022-12-28T08:01:34.999Z,94584.06
2022-12-28T08:04:06.231Z,94595.66
2022-12-28T08:06:36.962Z,94580.38
2022-12-28T08:09:06.549Z,94583.28
2022-12-28T08:11:37.774Z,94583.94
2022-12-28T08:14:07.523Z,94584.34
2022-12-28T08:16:39.148Z,94578.66
2022-12-28T08:19:08.257Z,94586.00
2022-12-28T08:21:40.082Z,94572.13
2022-12-28T08:24:09.428Z,94572.09
2022-12-28T08:26:40.238Z,94580.09
2022-12-28T08:29:12.985Z,94579.44
2022-12-28T08:31:44.675Z,94570.06
2022-12-28T08:34:23.560Z,94573.56
2022-12-28T08:36:51.609Z,94579.50
2022-12-28T08:39:19.709Z,94573.16
2022-12-28T08:41:47.942Z,94566.81
2022-12-28T08:44:18.989Z,94568.44
2022-12-28T08:46:47.375Z,94564.75
2022-12-28T08:49:15.493Z,94562.28
2022-12-28T08:51:43.848Z,94567.59
2022-12-28T08:54:14.036Z,94570.28
2022-12-28T08:56:44.223Z,94564.34
2022-12-28T08:59:17.978Z,94561.28
2022-12-28T09:01:47.249Z,94563.50
2022-12-28T09:04:18.352Z,94566.38
2022-12-28T09:06:47.065Z,94553.31
2022-12-28T09:09:17.658Z,94557.16
2022-12-28T09:11:46.309Z,94558.16
2022-12-28T09:14:23.213Z,94559.19
2022-12-28T09:16:54.308Z,94560.81
2022-12-28T09:19:25.817Z,94545.84
2022-12-28T09:21:55.624Z,94547.53
2022-12-28T09:24:23.821Z,94537.78
2022-12-28T09:26:53.286Z,94539.44
2022-12-28T09:29:22.048Z,94527.38
2022-12-28T09:31:50.425Z,94502.28
2022-12-28T09:34:36.591Z,94526.56
2022-12-28T09:37:07.992Z,94519.16
2022-12-28T09:39:36.754Z,94519.53
2022-12-28T09:42:09.717Z,94518.34
2022-12-28T09:44:50.527Z,94511.63
2022-12-28T09:47:44.999Z,94512.63
2022-12-28T09:50:16.485Z,94507.56
2022-12-28T09:53:06.167Z,94504.09
2022-12-28T09:55:38.436Z,94502.66
2022-12-28T09:58:15.648Z,94503.00
2022-12-28T10:00:54.438Z,94500.47
2022-12-28T10:03:27.427Z,94498.97
2022-12-28T10:05:58.276Z,94491.97
2022-12-28T10:08:28.117Z,94493.75
2022-12-28T10:11:00.474Z,94481.09
2022-12-28T10:13:57.375Z,94483.03
2022-12-28T10:16:29.771Z,94488.88
2022-12-28T10:18:58.347Z,94482.94
2022-12-28T10:21:32.949Z,94476.94
2022-12-28T10:26:50.892Z,94472.06
2022-12-28T10:29:22.061Z,94473.84
2022-12-28T10:32:05.005Z,94481.03
2022-12-28T10:34:35.471Z,94455.59
2022-12-28T10:37:15.810Z,94464.28
2022-12-28T10:40:02.116Z,94462.06
2022-12-28T10:42:37.367Z,94455.44
2022-12-28T10:45:20.506Z,94447.16
2022-12-28T10:47:57.033Z,94449.16
2022-12-28T10:50:44.014Z,94441.84
2022-12-28T10:53:26.991Z,94442.75
2022-12-28T10:56:15.055Z,94444.22
2022-12-28T10:58:47.943Z,94439.19
2022-12-28T11:01:18.245Z,94450.47
2022-12-28T11:04:00.129Z,94452.81
2022-12-28T11:07:00.563Z,94401.28
2022-12-28T11:09:36.246Z,94442.81
2022-12-28T11:12:24.429Z,94443.53
2022-12-28T11:14:53.563Z,94431.59
2022-12-28T11:17:34.614Z,94449.97
2022-12-28T11:20:14.716Z,94445.38
2022-12-28T11:22:42.963Z,94454.59
2022-12-28T11:25:34.907Z,94449.03
2022-12-28T11:28:14.119Z,94429.72
2022-12-28T11:30:43.903Z,94445.56
2022-12-28T11:33:35.837Z,94451.84
2022-12-28T11:36:09.905Z,94452.56
2022-12-28T11:38:39.201Z,94444.81
2022-12-28T11:41:34.080Z,94455.06
2022-12-28T11:44:04.893Z,94455.00
2022-12-28T11:46:36.053Z,94449.38
2022-12-28T11:49:23.968Z,94454.63
2022-12-28T11:52:18.282Z,94460.84
2022-12-28T11:55:24.694Z,94447.53
2022-12-28T11:57:54.874Z,94449.75
2022-12-28T12:00:24.179Z,94446.78
2022-12-28T12:02:58.222Z,94443.09
2022-12-28T12:05:38.836Z,94436.50
2022-12-28T12:08:16.733Z,94433.66
2022-12-28T12:10:46.663Z,94433.75
2022-12-28T12:13:26.868Z,94420.19
2022-12-28T12:16:17.622Z,94430.75
2022-12-28T12:18:52.423Z,94431.09
2022-12-28T12:21:30.178Z,94410.53
2022-12-28T12:24:27.122Z,94426.44
2022-12-28T12:27:11.790Z,94419.41
2022-12-28T12:29:44.738Z,94418.03
2022-12-28T12:32:25.785Z,94417.06
2022-12-28T12:35:00.479Z,94413.09
2022-12-28T12:37:52.659Z,94416.25
2022-12-28T12:40:48.436Z,94414.09
2022-12-28T12:43:41.366Z,94406.00
2022-12-28T12:46:27.785Z,94413.59
2022-12-28T12:49:14.277Z,94412.88
2022-12-28T12:52:06.637Z,94407.47
2022-12-28T12:55:02.132Z,94409.00
2022-12-28T12:57:48.500Z,94406.72
2022-12-28T13:00:22.608Z,94406.63
2022-12-28T13:03:09.434Z,94405.84
2022-12-28T13:05:42.033Z,94401.53
2022-12-28T13:08:24.607Z,94383.81
2022-12-28T13:10:54.812Z,94392.59
2022-12-28T13:13:38.014Z,94399.09
2022-12-28T13:16:17.495Z,94380.25
2022-12-28T13:19:06.806Z,94388.38
2022-12-28T13:21:51.062Z,94338.94
2022-12-28T13:24:24.922Z,94382.72
2022-12-28T13:26:54.712Z,94380.34
2022-12-28T13:29:26.207Z,94378.88
2022-12-28T13:31:56.015Z,94372.78
2022-12-28T13:34:31.216Z,94370.78
2022-12-28T13:37:00.558Z,94367.41
2022-12-28T13:39:34.114Z,94372.78
2022-12-28T13:42:14.477Z,94361.63
2022-12-28T13:44:54.024Z,94336.50
2022-12-28T13:47:24.788Z,94357.44
2022-12-28T13:49:52.862Z,94361.94
2022-12-28T13:52:32.995Z,94369.97
2022-12-28T13:55:06.963Z,94379.59
2022-12-28T13:57:47.448Z,94379.03
2022-12-28T14:00:23.135Z,94377.63
2022-12-28T14:02:55.696Z,94380.34
2022-12-28T14:05:30.224Z,94385.25
2022-12-28T14:08:00.057Z,94380.19
2022-12-28T14:10:29.160Z,94381.28
2022-12-28T14:12:59.000Z,94376.63
2022-12-28T14:15:28.217Z,94385.56
2022-12-28T14:17:57.043Z,94380.59
2022-12-28T14:20:25.412Z,94377.91
2022-12-28T14:22:53.984Z,94379.19
2022-12-28T14:25:23.106Z,94379.03
2022-12-28T14:28:27.937Z,94385.97
2022-12-28T14:30:56.954Z,94376.91
2022-12-28T14:33:28.318Z,94366.97
2022-12-28T14:36:01.836Z,94382.03
2022-12-28T14:38:45.603Z,94387.81
2022-12-28T14:41:28.993Z,94379.25
2022-12-28T14:44:01.201Z,94375.03
2022-12-28T14:46:40.089Z,94384.66
2022-12-28T14:49:30.156Z,94381.59
2022-12-28T14:52:19.064Z,94383.63
2022-12-28T14:54:48.813Z,94391.22
2022-12-28T14:57:23.338Z,94399.78
2022-12-28T15:00:01.218Z,94393.47
2022-12-28T15:02:35.769Z,94401.06
2022-12-28T15:05:04.272Z,94408.59
2022-12-28T15:07:32.217Z,94403.69
2022-12-28T15:10:01.940Z,94404.53
2022-12-28T15:12:30.410Z,94404.31
2022-12-28T15:14:58.998Z,94398.19
2022-12-28T15:17:33.195Z,94410.44
2022-12-28T15:20:02.223Z,94409.41
2022-12-28T15:22:30.782Z,94395.38
2022-12-28T15:24:59.467Z,94413.47
2022-12-28T15:27:28.328Z,94404.75
2022-12-28T15:30:05.659Z,94408.59
2022-12-28T15:32:34.982Z,94394.28
2022-12-28T15:35:03.843Z,94397.97
2022-12-28T15:37:32.220Z,94385.53
2022-12-28T15:40:00.627Z,94392.28
2022-12-28T15:42:30.057Z,94407.97
2022-12-28T15:44:59.816Z,94402.25
2022-12-28T15:47:28.507Z,94398.53
2022-12-28T15:49:59.869Z,94387.13
2022-12-28T15:52:28.358Z,94392.81
2022-12-28T15:54:56.700Z,94395.63
2022-12-28T15:57:26.109Z,94395.88
2022-12-28T15:59:55.252Z,94404.84
2022-12-28T16:02:24.447Z,94403.41
2022-12-28T16:04:53.395Z,94412.19
2022-12-28T16:07:22.008Z,94408.34
2022-12-28T16:09:50.481Z,94415.06
2022-12-28T16:12:21.848Z,94405.47
2022-12-28T16:14:50.345Z,94413.81
2022-12-28T16:17:21.850Z,94414.03
2022-12-28T16:19:50.382Z,94415.28
2022-12-28T16:22:18.816Z,94414.88
2022-12-28T16:24:48.969Z,94413.44
2022-12-28T16:27:19.471Z,94422.81
2022-12-28T16:29:52.735Z,94431.03
2022-12-28T16:32:24.138Z,94433.06
2022-12-28T16:34:55.131Z,94435.94
2022-12-28T16:37:24.261Z,94437.16
2022-12-28T16:39:53.946Z,94436.13
2022-12-28T16:42:22.405Z,94431.44
2022-12-28T16:44:51.252Z,94434.50
2022-12-28T16:47:19.693Z,94426.13
2022-12-28T16:49:48.386Z,94421.25
2022-12-28T16:52:16.729Z,94432.06
2022-12-28T16:54:45.319Z,94429.00
2022-12-28T16:57:13.820Z,94438.16
2022-12-28T16:59:42.232Z,94442.44
2022-12-28T17:02:13.266Z,94431.66
2022-12-28T17:04:42.154Z,94444.28
2022-12-28T17:07:10.794Z,94446.94
2022-12-28T17:09:43.042Z,94451.59
2022-12-28T17:12:15.275Z,94457.28
2022-12-28T17:14:43.624Z,94455.88
2022-12-28T17:17:12.091Z,94460.97
2022-12-28T17:19:40.443Z,94463.63
2022-12-28T17:22:09.053Z,94464.63
2022-12-28T17:24:37.914Z,94467.09
2022-12-28T17:27:09.080Z,94457.28
2022-12-28T17:29:39.480Z,94461.16
2022-12-28T17:32:08.311Z,94464.00
2022-12-28T17:34:37.199Z,94458.88
2022-12-28T17:37:05.590Z,94459.50
2022-12-28T17:39:39.551Z,94460.09
2022-12-28T17:42:09.772Z,94464.59
2022-12-28T17:44:38.734Z,94461.94
2022-12-28T17:47:07.319Z,94458.03
2022-12-28T17:49:36.059Z,94441.72
2022-12-28T17:52:04.396Z,94460.09
2022-12-28T17:54:33.408Z,94465.38
2022-12-28T17:57:01.962Z,94470.47
2022-12-28T17:59:30.838Z,94470.22
2022-12-28T18:02:02.185Z,94457.53
2022-12-28T18:04:31.585Z,94462.84
2022-12-28T18:07:00.258Z,94457.53
2022-12-28T18:09:28.975Z,94463.63
2022-12-28T18:11:57.504Z,94455.50
2022-12-28T18:14:26.946Z,94465.78
2022-12-28T18:16:56.055Z,94476.56
2022-12-28T18:19:24.620Z,94485.34
2022-12-28T18:21:53.088Z,94481.06
2022-12-28T18:24:21.989Z,94458.03
2022-12-28T18:26:50.906Z,94479.69
2022-12-28T18:29:19.368Z,94474.97
2022-12-28T18:31:47.908Z,94469.91
2022-12-28T18:34:17.643Z,94477.00
2022-12-28T18:36:46.254Z,94481.94
2022-12-28T18:39:14.986Z,94488.66
2022-12-28T18:41:43.536Z,94487.00
2022-12-28T18:44:11.992Z,94493.91
2022-12-28T18:46:40.551Z,94494.38
2022-12-28T18:49:09.095Z,94486.47
2022-12-28T18:51:37.713Z,94486.31
2022-12-28T18:54:06.561Z,94484.59
2022-12-28T18:56:35.217Z,94489.19
2022-12-28T18:59:03.847Z,94484.97
2022-12-28T19:02:05.178Z,94479.03
2022-12-28T19:04:21.844Z,94481.88
2022-12-28T19:06:50.426Z,94485.56
2022-12-28T19:09:18.620Z,94481.50
2022-12-28T19:11:47.339Z,94490.06
2022-12-28T19:14:16.584Z,94485.16
2022-12-28T19:16:45.450Z,94494.16
2022-12-28T19:19:14.383Z,94495.56
2022-12-28T19:21:43.663Z,94498.38
2022-12-28T19:24:19.711Z,94499.66
2022-12-28T19:26:48.476Z,94498.69
2022-12-28T19:29:16.943Z,94497.06
2022-12-28T19:31:45.519Z,94499.44
2022-12-28T19:34:14.178Z,94503.22
2022-12-28T19:36:42.562Z,94496.28
2022-12-28T19:39:11.706Z,94497.31
2022-12-28T19:41:40.697Z,94503.03
2022-12-28T19:44:08.948Z,94498.66
2022-12-28T19:46:37.528Z,94494.53
2022-12-28T19:49:06.138Z,94492.34
2022-12-28T19:51:34.828Z,94473.41
2022-12-28T19:54:03.527Z,94485.06
2022-12-28T19:56:32.453Z,94481.38
2022-12-28T19:59:06.642Z,94493.44
2022-12-28T20:01:37.470Z,94499.94
2022-12-28T20:04:12.887Z,94488.09
2022-12-28T20:06:44.521Z,94495.88
2022-12-28T20:09:14.170Z,94488.81
2022-12-28T20:11:43.635Z,94493.09
2022-12-28T20:14:14.441Z,94488.00
2022-12-28T20:16:43.934Z,94477.41
2022-12-28T20:19:13.363Z,94488.19
2022-12-28T20:21:42.538Z,94483.53
2022-12-28T20:24:11.699Z,94492.03
2022-12-28T20:26:40.055Z,94488.34
2022-12-28T20:29:08.835Z,94490.22
2022-12-28T20:31:37.263Z,94492.47
2022-12-28T20:34:06.034Z,94488.31
2022-12-28T20:36:34.733Z,94497.84
2022-12-28T20:39:04.171Z,94495.16
2022-12-28T20:41:52.101Z,94489.56
2022-12-28T20:44:30.723Z,94493.47
2022-12-28T20:47:00.467Z,94492.09
2022-12-28T20:49:30.030Z,94491.28
2022-12-28T20:51:58.313Z,94477.31
2022-12-28T20:54:26.883Z,94494.63
2022-12-28T20:56:56.242Z,94480.16
2022-12-28T20:59:26.189Z,94463.50
2022-12-28T21:01:54.924Z,94475.50
2022-12-28T21:04:25.165Z,94484.50
2022-12-28T21:06:54.705Z,94481.25
2022-12-28T21:09:23.423Z,94473.41
2022-12-28T21:11:51.626Z,94482.44
2022-12-28T21:14:20.251Z,94482.63
2022-12-28T21:16:48.998Z,94477.97
2022-12-28T21:19:17.896Z,94479.84
2022-12-28T21:21:48.592Z,94490.88
2022-12-28T21:24:17.175Z,94492.75
2022-12-28T21:26:45.702Z,94488.53
2022-12-28T21:29:13.735Z,94476.53
2022-12-28T21:31:41.836Z,94477.53
2022-12-28T21:34:10.370Z,94468.31
2022-12-28T21:36:38.769Z,94467.53
2022-12-28T21:39:06.781Z,94465.53
2022-12-28T21:41:50.292Z,94469.78
2022-12-28T21:44:24.234Z,94462.25
2022-12-28T21:46:53.699Z,94446.09
2022-12-28T21:49:21.768Z,94464.91
2022-12-28T21:51:50.440Z,94466.72
2022-12-28T21:54:20.959Z,94461.06
2022-12-28T21:59:24.468Z,94467.31
2022-12-28T22:02:12.064Z,94465.28
2022-12-28T22:05:03.068Z,94462.25
2022-12-28T22:07:34.714Z,94470.28
2022-12-28T22:10:21.151Z,94466.91
2022-12-28T22:12:49.188Z,94456.28
2022-12-28T22:15:38.469Z,94461.44
2022-12-28T22:21:09.160Z,94459.47
2022-12-28T22:23:37.041Z,94451.16
2022-12-28T22:26:05.181Z,94459.53
2022-12-28T22:28:33.525Z,94446.22
2022-12-28T22:31:08.691Z,94458.53
2022-12-28T22:33:36.723Z,94467.72
2022-12-28T22:36:16.588Z,94460.56
2022-12-28T22:38:45.433Z,94459.94
2022-12-28T22:41:13.749Z,94458.28
2022-12-28T22:43:42.488Z,94461.53
2022-12-28T22:46:12.157Z,94461.91
2022-12-28T22:48:40.158Z,94459.25
2022-12-28T22:51:10.694Z,94463.69
2022-12-28T22:53:39.904Z,94465.38
2022-12-28T22:56:11.540Z,94463.16
2022-12-28T22:58:39.473Z,94460.78
2022-12-28T23:01:12.282Z,94459.38
2022-12-28T23:03:42.303Z,94461.69
2022-12-28T23:06:14.535Z,94453.16
2022-12-28T23:08:42.917Z,94436.75
2022-12-28T23:11:32.473Z,94444.06
2022-12-28T23:14:21.418Z,94433.44
2022-12-28T23:16:49.996Z,94450.25
2022-12-28T23:19:36.436Z,94442.41
2022-12-28T23:22:24.122Z,94445.69
2022-12-28T23:25:10.856Z,94441.06
2022-12-28T23:27:43.469Z,94445.91
2022-12-28T23:30:17.848Z,94456.13
2022-12-28T23:32:47.250Z,94451.00
2022-12-28T23:35:16.189Z,94448.56
2022-12-28T23:37:44.486Z,94458.16
2022-12-28T23:40:14.820Z,94455.38
2022-12-28T23:42:44.483Z,94444.88
2022-12-28T23:45:14.840Z,94442.19
2022-12-28T23:47:44.134Z,94438.78
2022-12-28T23:50:12.701Z,94431.84
2022-12-28T23:52:41.102Z,94440.06
2022-12-28T23:55:10.244Z,94439.44
2022-12-28T23:57:38.342Z,94432.97
